Welcome to Des Moines Iowa Weather. I am an independent private personal weather station on the Northwest Side of Des Moines, Iowa. Just East of Windsor Heights and just West of Glendale . This site is also mobile friendly.

There are no active watches, warnings or advisories


Visit our other weather sites:

Historical Data

Weather Station Setup



Weather Underground History page Text

Daily Summary for June 17, 2017 Units:  English    Metric   Both
« Previous Day
Next Day »
Daily Weekly Monthly Yearly Custom
  High: Low: Average:
Temperature: 84.2 °F 69.6 °F 75.8 °F
Dew Point: 73.0 °F 59.0 °F 67 °F
Humidity: 92 % 51 % 76 %
Wind Speed: 4.0 mph 0.0 mph 0.5 mph
Wind Gust: 11.0 mph - -
Wind:- - SSW
Pressure: 29.65 in 29.51 in -
Precipitation: 0.00 in    
Historical Graphs
 
 
Tabular Data for June 17, 2017
Time Temperature Dew Point Pressure Wind Wind Speed Wind Gust Humidity Rainfall Rate (Hourly)
00:00 76.1 °F 73.0 °F 29.53 in Calm     90 % 0.00 in
00:15 76.1 °F 73.0 °F 29.52 in Calm     90 % 0.00 in
00:30 75.9 °F 73.0 °F 29.52 in NNW 2.0 mph 3.0 mph 90 % 0.00 in
00:45 75.7 °F 72.0 °F 29.51 in Calm     89 % 0.00 in
01:00 75.3 °F 72.0 °F 29.52 in Calm   1.0 mph 89 % 0.00 in
01:30 74.3 °F 71.0 °F 29.53 in Calm     88 % 0.00 in
01:45 73.6 °F 70.0 °F 29.52 in Calm   2.0 mph 88 % 0.00 in
02:00 73.3 °F 70.0 °F 29.52 in NNW 1.0 mph 2.0 mph 88 % 0.00 in
02:15 72.9 °F 69.0 °F 29.51 in Calm   1.0 mph 88 % 0.00 in
02:30 72.6 °F 69.0 °F 29.52 in Calm     88 % 0.00 in
02:45 72.4 °F 69.0 °F 29.52 in Calm   1.0 mph 89 % 0.00 in
03:00 72.3 °F 69.0 °F 29.51 in Calm     89 % 0.00 in
03:15 72.2 °F 69.0 °F 29.52 in Calm     90 % 0.00 in
03:30 72.1 °F 69.0 °F 29.52 in Calm     90 % 0.00 in
03:45 72.0 °F 69.0 °F 29.52 in Calm     90 % 0.00 in
04:00 71.9 °F 69.0 °F 29.53 in Calm     91 % 0.00 in
04:15 71.9 °F 69.0 °F 29.53 in Calm     91 % 0.00 in
04:30 72.0 °F 70.0 °F 29.53 in Calm     92 % 0.00 in
04:45 72.2 °F 70.0 °F 29.54 in Calm   2.0 mph 92 % 0.00 in
05:00 71.9 °F 69.0 °F 29.54 in Calm     91 % 0.00 in
05:15 71.4 °F 69.0 °F 29.55 in Calm     91 % 0.00 in
05:30 70.9 °F 68.0 °F 29.56 in Calm     90 % 0.00 in
05:45 70.4 °F 68.0 °F 29.57 in Calm     91 % 0.00 in
06:00 70.1 °F 67.0 °F 29.57 in Calm     91 % 0.00 in
06:15 69.8 °F 67.0 °F 29.57 in Calm     91 % 0.00 in
06:30 69.8 °F 67.0 °F 29.58 in Calm     92 % 0.00 in
06:45 69.9 °F 68.0 °F 29.58 in Calm   2.0 mph 92 % 0.00 in
07:00 69.9 °F 68.0 °F 29.57 in SE 1.0 mph 3.0 mph 92 % 0.00 in
07:15 70.3 °F 68.0 °F 29.57 in Calm     92 % 0.00 in
07:30 70.5 °F 68.0 °F 29.57 in Calm   3.0 mph 91 % 0.00 in
07:45 70.8 °F 68.0 °F 29.59 in Calm     90 % 0.00 in
08:01 71.1 °F 68.0 °F 29.59 in Calm   1.0 mph 90 % 0.00 in
08:16 71.2 °F 68.0 °F 29.59 in Calm   4.0 mph 89 % 0.00 in
08:31 71.5 °F 68.0 °F 29.59 in NW 1.0 mph 3.0 mph 89 % 0.00 in
08:46 72.0 °F 69.0 °F 29.59 in Calm   2.0 mph 89 % 0.00 in
09:01 72.4 °F 69.0 °F 29.59 in Calm   2.0 mph 88 % 0.00 in
09:16 72.9 °F 69.0 °F 29.58 in Calm   3.0 mph 87 % 0.00 in
09:31 73.5 °F 69.0 °F 29.58 in Calm     86 % 0.00 in
09:46 73.9 °F 69.0 °F 29.57 in Calm   2.0 mph 85 % 0.00 in
10:01 74.7 °F 70.0 °F 29.57 in Calm   2.0 mph 85 % 0.00 in
10:16 75.9 °F 71.0 °F 29.57 in Calm   3.0 mph 84 % 0.00 in
10:31 77.2 °F 71.0 °F 29.58 in NE 1.0 mph 6.0 mph 82 % 0.00 in
10:46 78.3 °F 71.0 °F 29.59 in North 3.0 mph 6.0 mph 78 % 0.00 in
11:01 78.7 °F 72.0 °F 29.60 in Calm   5.0 mph 79 % 0.00 in
11:16 78.9 °F 72.0 °F 29.60 in NNE 4.0 mph 4.0 mph 78 % 0.00 in
11:31 79.2 °F 70.0 °F 29.59 in NNE 2.0 mph 5.0 mph 74 % 0.00 in
11:46 80.3 °F 70.0 °F 29.58 in Calm   8.0 mph 71 % 0.00 in
12:01 81.4 °F 69.0 °F 29.58 in NW 3.0 mph 4.0 mph 66 % 0.00 in
12:16 82.9 °F 69.0 °F 29.58 in Calm   5.0 mph 64 % 0.00 in
12:31 83.1 °F 69.0 °F 29.57 in Calm   6.0 mph 63 % 0.00 in
12:46 82.1 °F 69.0 °F 29.57 in ENE 3.0 mph 5.0 mph 64 % 0.00 in
13:01 81.5 °F 69.0 °F 29.59 in NE 2.0 mph 5.0 mph 65 % 0.00 in
13:16 81.2 °F 68.0 °F 29.57 in NNW 1.0 mph 4.0 mph 64 % 0.00 in
13:31 82.3 °F 68.0 °F 29.58 in Calm   7.0 mph 63 % 0.00 in
13:46 82.8 °F 66.0 °F 29.58 in NW 2.0 mph 3.0 mph 58 % 0.00 in
14:01 82.9 °F 68.0 °F 29.58 in Calm   4.0 mph 61 % 0.00 in
14:16 83.0 °F 66.0 °F 29.57 in Calm   4.0 mph 56 % 0.00 in
14:31 83.4 °F 66.0 °F 29.57 in NNE 1.0 mph 3.0 mph 55 % 0.00 in
14:46 84.2 °F 65.0 °F 29.58 in Calm   5.0 mph 52 % 0.00 in
15:01 83.7 °F 64.0 °F 29.59 in Calm   6.0 mph 51 % 0.00 in
15:17 83.2 °F 65.0 °F 29.59 in WNW 1.0 mph 3.0 mph 55 % 0.00 in
15:31 82.6 °F 65.0 °F 29.58 in Calm   3.0 mph 55 % 0.00 in
15:46 82.1 °F 64.0 °F 29.59 in NW 2.0 mph 3.0 mph 54 % 0.00 in
16:02 81.5 °F 63.0 °F 29.59 in Calm   2.0 mph 54 % 0.00 in
16:17 81.3 °F 65.0 °F 29.59 in Calm   1.0 mph 57 % 0.00 in
16:32 81.4 °F 66.0 °F 29.59 in Calm   1.0 mph 60 % 0.00 in
16:47 80.9 °F 65.0 °F 29.59 in West 3.0 mph 5.0 mph 59 % 0.00 in
17:02 80.5 °F 64.0 °F 29.59 in NNE 4.0 mph 5.0 mph 57 % 0.00 in
17:17 80.4 °F 63.0 °F 29.59 in NNE 2.0 mph 4.0 mph 55 % 0.00 in
17:32 80.0 °F 63.0 °F 29.59 in WNW 2.0 mph 8.0 mph 57 % 0.00 in
17:47 79.9 °F 63.0 °F 29.59 in North 1.0 mph 8.0 mph 57 % 0.00 in
18:02 79.1 °F 63.0 °F 29.59 in NE 2.0 mph 8.0 mph 59 % 0.00 in
18:17 78.5 °F 64.0 °F 29.60 in Calm   9.0 mph 61 % 0.00 in
18:32 78.2 °F 62.0 °F 29.59 in Calm   2.0 mph 57 % 0.00 in
18:47 78.1 °F 62.0 °F 29.58 in Calm     57 % 0.00 in
19:02 78.0 °F 61.0 °F 29.58 in Calm   1.0 mph 57 % 0.00 in
19:17 77.8 °F 61.0 °F 29.58 in Calm   1.0 mph 57 % 0.00 in
19:32 77.6 °F 62.0 °F 29.60 in Calm     58 % 0.00 in
19:47 77.3 °F 64.0 °F 29.60 in Calm     64 % 0.00 in
20:02 76.8 °F 65.0 °F 29.61 in Calm     68 % 0.00 in
20:17 76.1 °F 66.0 °F 29.61 in Calm   2.0 mph 71 % 0.00 in
20:32 75.3 °F 66.0 °F 29.60 in Calm   1.0 mph 73 % 0.00 in
20:47 74.7 °F 66.0 °F 29.60 in Calm     73 % 0.00 in
21:02 74.1 °F 65.0 °F 29.60 in Calm   1.0 mph 73 % 0.00 in
21:17 73.6 °F 65.0 °F 29.61 in Calm   1.0 mph 74 % 0.00 in
21:32 73.2 °F 65.0 °F 29.62 in Calm   2.0 mph 76 % 0.00 in
21:47 72.7 °F 65.0 °F 29.63 in Calm   2.0 mph 77 % 0.00 in
22:02 72.2 °F 65.0 °F 29.62 in Calm   6.0 mph 78 % 0.00 in
22:17 71.9 °F 65.0 °F 29.61 in Calm   7.0 mph 78 % 0.00 in
22:32 71.6 °F 64.0 °F 29.60 in Calm   7.0 mph 76 % 0.00 in
22:47 71.4 °F 63.0 °F 29.62 in WSW 1.0 mph 4.0 mph 75 % 0.00 in
23:02 71.2 °F 63.0 °F 29.63 in NW 1.0 mph 5.0 mph 74 % 0.00 in
23:17 70.9 °F 61.0 °F 29.64 in West 1.0 mph 9.0 mph 72 % 0.00 in
23:32 70.3 °F 59.0 °F 29.64 in Calm   11.0 mph 67 % 0.00 in
23:47 69.6 °F 59.0 °F 29.65 in Calm   11.0 mph 69 % 0.00 in
Des Moines Weather and Climate
Compliments of Weather Underground - 3 mb

Script developed by  Jim McMurry - jmcmurry@mwt.net Adapted for the template by  Wim van der Kuil - Leuven-Template.eu

You find our weather info also at:

Weather Underground

Equipment we use:

Weather-station
Davis VP2 Plus

Weather-program
Davis Weatherlink.Com

Weather-server
iMac (Retina 4K, 21.5-inch, Late 2015)

Provider
Hostmonster.com

Davis VP2 Plus

Davis Weatherlink.Com

iMac (Retina 4K, 21.5-inch, Late 2015)

Hostmonster.com